Time;durP1;ratioP1;P1;durP2;ratioP2;P2;SDS_P1;SDS_P2;PMS_P1;PMS_P2;Temp;Humidity;BMP_temperature;BMP_pressure;BME280_temperature;BME280_humidity;BME280_pressure;Samples;Min_cycle;Max_cycle;Signal;HPM_P1;HPM_P2
2024/03/21 00:01:42;;;;;;;14.63;6.90;;;;;;;;;;5063385;28;20036;-54
2024/03/21 00:04:08;;;;;;;20.63;7.50;;;;;;;;;;5065421;28;20198;-56
2024/03/21 00:06:33;;;;;;;19.67;8.23;;;;;;;;;;5066974;28;20032;-55
2024/03/21 00:08:59;;;;;;;19.88;7.88;;;;;;;;;;5032005;28;20038;-54
2024/03/21 00:11:25;;;;;;;18.67;7.40;;;;;;;;;;5048432;28;20096;-53
2024/03/21 00:13:50;;;;;;;21.92;7.32;;;;;;;;;;5065498;28;20033;-53
2024/03/21 00:16:17;;;;;;;19.85;8.43;;;;;;;;;;5066859;28;20124;-52
2024/03/21 00:18:43;;;;;;;17.40;8.05;;;;;;;;;;5064986;28;20040;-56
2024/03/21 00:21:09;;;;;;;18.85;7.43;;;;;;;;;;5059590;28;20028;-56
2024/03/21 00:23:35;;;;;;;19.02;8.05;;;;;;;;;;5066041;28;20415;-51
2024/03/21 00:26:01;;;;;;;23.35;8.55;;;;;;;;;;5066445;28;20408;-55
2024/03/21 00:28:27;;;;;;;15.30;7.85;;;;;;;;;;5066621;28;20050;-52
2024/03/21 00:30:56;;;;;;;20.48;7.15;;;;;;;;;;5055958;28;20577;-52
2024/03/21 00:33:23;;;;;;;20.40;7.82;;;;;;;;;;5061117;28;20045;-56
2024/03/21 00:35:49;;;;;;;20.23;7.63;;;;;;;;;;5045875;28;20033;-53
2024/03/21 00:38:14;;;;;;;22.10;8.02;;;;;;;;;;5061057;28;20750;-55
2024/03/21 00:40:40;;;;;;;22.30;8.32;;;;;;;;;;5026728;28;20025;-51
2024/03/21 00:43:06;;;;;;;21.67;7.72;;;;;;;;;;5044153;28;20036;-50
2024/03/21 00:45:32;;;;;;;20.45;8.80;;;;;;;;;;5042541;28;20044;-55
2024/03/21 00:47:57;;;;;;;23.00;8.98;;;;;;;;;;5045728;28;20412;-49
2024/03/21 00:50:23;;;;;;;26.63;8.50;;;;;;;;;;5046621;28;20028;-52
2024/03/21 00:52:49;;;;;;;16.98;7.90;;;;;;;;;;5044429;28;20106;-51
2024/03/21 00:55:15;;;;;;;20.33;7.90;;;;;;;;;;5045748;28;20815;-52
2024/03/21 00:57:40;;;;;;;25.00;8.10;;;;;;;;;;5045740;28;20548;-56
2024/03/21 01:00:07;;;;;;;29.90;9.35;;;;;;;;;;5049791;28;20427;-51
2024/03/21 01:02:34;;;;;;;18.50;7.78;;;;;;;;;;5061020;28;20036;-51
2024/03/21 01:05:02;;;;;;;20.95;8.52;;;;;;;;;;5046839;28;20126;-54
2024/03/21 01:07:30;;;;;;;17.00;8.43;;;;;;;;;;5050207;28;20044;-50
2024/03/21 01:09:56;;;;;;;21.70;8.45;;;;;;;;;;5064220;28;20047;-48
2024/03/21 01:12:21;;;;;;;18.40;8.85;;;;;;;;;;5047148;28;20032;-52
2024/03/21 01:14:47;;;;;;;24.10;9.82;;;;;;;;;;5051914;28;20033;-52
2024/03/21 01:17:13;;;;;;;23.98;9.15;;;;;;;;;;5060714;28;20250;-55
2024/03/21 01:19:39;;;;;;;18.27;8.93;;;;;;;;;;5045259;28;20037;-54
2024/03/21 01:22:04;;;;;;;21.23;9.15;;;;;;;;;;5045770;28;20135;-53
2024/03/21 01:24:30;;;;;;;23.15;9.23;;;;;;;;;;5043914;28;20041;-50
2024/03/21 01:26:56;;;;;;;23.75;10.10;;;;;;;;;;5043789;28;20036;-50
2024/03/21 01:29:21;;;;;;;20.23;8.70;;;;;;;;;;5045547;28;20045;-49
2024/03/21 01:31:49;;;;;;;19.63;7.85;;;;;;;;;;5044418;28;20064;-49
2024/03/21 01:34:15;;;;;;;23.35;7.68;;;;;;;;;;5050607;28;20075;-50
2024/03/21 01:36:49;;;;;;;20.88;8.45;;;;;;;;;;5047508;28;20051;-54
2024/03/21 01:39:15;;;;;;;18.98;8.15;;;;;;;;;;5047262;28;20133;-53
2024/03/21 01:41:41;;;;;;;16.88;8.02;;;;;;;;;;5065558;28;20123;-53
2024/03/21 01:44:17;;;;;;;20.23;9.25;;;;;;;;;;5043561;28;20029;-52
2024/03/21 01:46:43;;;;;;;15.85;7.88;;;;;;;;;;5043998;28;20401;-51
2024/03/21 01:49:09;;;;;;;18.00;7.18;;;;;;;;;;5044440;28;20064;-52
2024/03/21 01:51:36;;;;;;;14.27;6.53;;;;;;;;;;5045682;28;20572;-51
2024/03/21 01:54:02;;;;;;;13.43;6.00;;;;;;;;;;5043986;28;20849;-49
2024/03/21 01:56:28;;;;;;;16.40;6.90;;;;;;;;;;5044266;28;20124;-52
2024/03/21 01:58:56;;;;;;;17.02;6.72;;;;;;;;;;5044861;28;20087;-55
2024/03/21 02:01:25;;;;;;;13.85;7.50;;;;;;;;;;5056388;28;20048;-56
2024/03/21 02:03:52;;;;;;;24.40;8.02;;;;;;;;;;5057437;28;20120;-51
2024/03/21 02:06:21;;;;;;;15.65;6.30;;;;;;;;;;5043422;28;20036;-52
2024/03/21 02:08:47;;;;;;;17.80;7.25;;;;;;;;;;5043285;28;20063;-51
2024/03/21 02:11:13;;;;;;;17.58;7.10;;;;;;;;;;5026825;28;20071;-54
2024/03/21 02:13:39;;;;;;;21.05;6.65;;;;;;;;;;5045144;28;20037;-57
2024/03/21 02:16:05;;;;;;;18.88;7.07;;;;;;;;;;5043973;28;20142;-51
2024/03/21 02:18:53;;;;;;;16.02;6.97;;;;;;;;;;5061714;28;20041;-49
2024/03/21 02:24:03;;;;;;;12.23;5.07;;;;;;;;;;5048609;28;20051;-52
2024/03/21 02:26:29;;;;;;;11.32;6.40;;;;;;;;;;5048552;28;20123;-49
2024/03/21 02:28:55;;;;;;;28.55;7.60;;;;;;;;;;5063674;28;20128;-48
2024/03/21 02:31:22;;;;;;;18.90;7.55;;;;;;;;;;5048555;28;20488;-54
2024/03/21 02:33:49;;;;;;;15.48;6.10;;;;;;;;;;5064429;28;20060;-52
2024/03/21 02:36:15;;;;;;;16.52;7.68;;;;;;;;;;5048830;28;20595;-54
2024/03/21 02:38:41;;;;;;;13.80;6.63;;;;;;;;;;5048961;28;20476;-50
2024/03/21 02:41:07;;;;;;;17.77;7.53;;;;;;;;;;5046542;28;21618;-49
2024/03/21 02:43:32;;;;;;;16.13;6.13;;;;;;;;;;5046616;28;20131;-54
2024/03/21 02:45:58;;;;;;;20.25;7.97;;;;;;;;;;5045217;28;20564;-57
2024/03/21 02:48:24;;;;;;;20.27;8.77;;;;;;;;;;5045490;28;20063;-47
2024/03/21 02:50:50;;;;;;;16.60;7.00;;;;;;;;;;5048460;28;20028;-56
2024/03/21 02:53:15;;;;;;;17.02;6.95;;;;;;;;;;5048058;28;20040;-47
2024/03/21 02:55:41;;;;;;;13.23;6.53;;;;;;;;;;5046573;28;20032;-53
2024/03/21 02:58:07;;;;;;;15.52;7.30;;;;;;;;;;5047839;28;20040;-54
2024/03/21 03:00:33;;;;;;;15.43;7.63;;;;;;;;;;5054941;28;20523;-54
2024/03/21 03:02:59;;;;;;;19.83;8.55;;;;;;;;;;5054240;28;20836;-49
2024/03/21 03:05:25;;;;;;;20.92;8.55;;;;;;;;;;5047530;28;20570;-51
2024/03/21 03:07:50;;;;;;;20.85;8.45;;;;;;;;;;5047502;28;20041;-51
2024/03/21 03:10:16;;;;;;;20.70;7.45;;;;;;;;;;5046117;28;20043;-53
2024/03/21 03:12:44;;;;;;;19.20;7.82;;;;;;;;;;5047593;28;20040;-54
2024/03/21 03:15:10;;;;;;;17.17;8.20;;;;;;;;;;5047823;28;20111;-50
2024/03/21 03:17:36;;;;;;;24.83;10.27;;;;;;;;;;5046066;28;20032;-51
2024/03/21 03:20:02;;;;;;;21.08;10.13;;;;;;;;;;5045705;28;20028;-49
2024/03/21 03:22:30;;;;;;;22.42;9.00;;;;;;;;;;5046255;28;20527;-51
2024/03/21 03:24:56;;;;;;;23.00;8.77;;;;;;;;;;5045924;28;20036;-51
2024/03/21 03:27:22;;;;;;;19.55;7.38;;;;;;;;;;5047249;28;20591;-52
2024/03/21 03:29:48;;;;;;;22.90;8.38;;;;;;;;;;5062617;28;20032;-50
2024/03/21 03:32:14;;;;;;;19.90;8.65;;;;;;;;;;5062763;28;20039;-52
2024/03/21 03:37:26;;;;;;;17.65;7.70;;;;;;;;;;5065356;28;20090;-50
2024/03/21 03:39:52;;;;;;;20.13;8.68;;;;;;;;;;5067144;28;20041;-53
2024/03/21 03:42:20;;;;;;;19.13;8.55;;;;;;;;;;5067110;28;20075;-54
2024/03/21 03:44:46;;;;;;;17.40;7.72;;;;;;;;;;5048586;28;20025;-52
2024/03/21 03:47:11;;;;;;;14.50;6.97;;;;;;;;;;5067148;28;20028;-54
2024/03/21 03:49:37;;;;;;;14.15;7.72;;;;;;;;;;5066870;28;20059;-53
2024/03/21 03:52:03;;;;;;;15.25;6.65;;;;;;;;;;5066516;28;20519;-52
2024/03/21 03:54:28;;;;;;;12.60;6.40;;;;;;;;;;5054745;28;20123;-50
2024/03/21 03:56:54;;;;;;;12.07;6.57;;;;;;;;;;5046690;28;20032;-54
2024/03/21 03:59:20;;;;;;;14.88;6.03;;;;;;;;;;5046556;28;20907;-52
2024/03/21 04:01:47;;;;;;;15.75;6.15;;;;;;;;;;5053846;28;20110;-51
2024/03/21 04:04:14;;;;;;;15.32;7.22;;;;;;;;;;5046642;28;20045;-49
2024/03/21 04:06:40;;;;;;;17.08;7.38;;;;;;;;;;5063245;28;20029;-48
2024/03/21 04:09:06;;;;;;;18.75;7.75;;;;;;;;;;5065049;28;20511;-51
2024/03/21 04:11:34;;;;;;;20.40;6.75;;;;;;;;;;5049434;28;20039;-51
2024/03/21 04:14:00;;;;;;;23.25;7.40;;;;;;;;;;5046526;28;20082;-49
2024/03/21 04:16:26;;;;;;;19.70;7.65;;;;;;;;;;5061747;28;20369;-51
2024/03/21 04:18:52;;;;;;;26.38;9.23;;;;;;;;;;5044926;28;20060;-53
2024/03/21 04:21:18;;;;;;;15.52;7.18;;;;;;;;;;5046672;28;20049;-52
2024/03/21 04:23:44;;;;;;;19.50;8.05;;;;;;;;;;5028645;28;20044;-52
2024/03/21 04:26:10;;;;;;;17.00;7.57;;;;;;;;;;5046874;28;20045;-49
2024/03/21 04:28:35;;;;;;;24.63;7.72;;;;;;;;;;5046790;28;20056;-50
2024/03/21 04:31:01;;;;;;;19.00;7.63;;;;;;;;;;5046037;28;20423;-58
2024/03/21 04:33:27;;;;;;;17.33;6.55;;;;;;;;;;5060805;28;20143;-51
2024/03/21 04:35:53;;;;;;;20.05;7.50;;;;;;;;;;5064558;28;20036;-52
2024/03/21 04:38:18;;;;;;;21.85;7.80;;;;;;;;;;5048306;28;20415;-49
2024/03/21 04:40:45;;;;;;;16.30;7.25;;;;;;;;;;5064681;28;20039;-50
2024/03/21 04:43:11;;;;;;;20.08;7.50;;;;;;;;;;5044171;28;20136;-51
2024/03/21 04:45:37;;;;;;;26.50;8.05;;;;;;;;;;5045807;28;20041;-55
2024/03/21 04:48:03;;;;;;;15.57;6.55;;;;;;;;;;5045916;28;20041;-50
2024/03/21 04:50:29;;;;;;;19.33;7.00;;;;;;;;;;5045931;28;20040;-51
2024/03/21 04:52:55;;;;;;;18.00;7.25;;;;;;;;;;5046009;28;20227;-57
2024/03/21 04:55:20;;;;;;;22.67;7.82;;;;;;;;;;5061527;28;20068;-58
2024/03/21 04:57:46;;;;;;;24.90;9.02;;;;;;;;;;5044964;28;20121;-50
2024/03/21 05:00:13;;;;;;;25.67;7.53;;;;;;;;;;5049196;28;20036;-52
2024/03/21 05:02:42;;;;;;;22.67;7.72;;;;;;;;;;5056406;28;20124;-53
2024/03/21 05:05:07;;;;;;;22.08;7.47;;;;;;;;;;5045882;28;20032;-51
2024/03/21 05:07:34;;;;;;;19.45;7.95;;;;;;;;;;5060894;28;20029;-49
2024/03/21 05:10:00;;;;;;;20.20;7.47;;;;;;;;;;5044358;28;20098;-49
2024/03/21 05:12:27;;;;;;;20.98;6.95;;;;;;;;;;5061102;28;20152;-53
2024/03/21 05:14:53;;;;;;;22.35;7.38;;;;;;;;;;5061055;28;20029;-54
2024/03/21 05:17:20;;;;;;;23.88;7.45;;;;;;;;;;5045748;28;20047;-49
2024/03/21 05:19:47;;;;;;;18.20;7.95;;;;;;;;;;5044512;28;20032;-50
2024/03/21 05:22:16;;;;;;;21.77;8.35;;;;;;;;;;5043475;28;20037;-53
2024/03/21 05:24:42;;;;;;;26.75;8.73;;;;;;;;;;5059137;28;20029;-51
2024/03/21 05:27:09;;;;;;;16.75;8.25;;;;;;;;;;5044793;28;20047;-50
2024/03/21 05:29:36;;;;;;;24.08;8.90;;;;;;;;;;5061101;28;20041;-51
2024/03/21 05:32:02;;;;;;;27.58;8.48;;;;;;;;;;5043845;28;20040;-49
2024/03/21 05:34:28;;;;;;;19.23;7.55;;;;;;;;;;5051480;28;20150;-52
2024/03/21 05:36:53;;;;;;;17.80;6.85;;;;;;;;;;5066153;28;20144;-50
2024/03/21 05:39:19;;;;;;;18.25;8.18;;;;;;;;;;5079253;28;20028;-53
2024/03/21 05:41:45;;;;;;;23.92;8.93;;;;;;;;;;5053858;28;20559;-53
2024/03/21 05:44:11;;;;;;;20.58;7.97;;;;;;;;;;5050801;28;20041;-50
2024/03/21 05:46:37;;;;;;;20.52;8.07;;;;;;;;;;5045150;28;20926;-53
2024/03/21 05:49:03;;;;;;;15.63;7.57;;;;;;;;;;5027098;28;20033;-50
2024/03/21 05:51:28;;;;;;;15.25;6.97;;;;;;;;;;5044441;28;20044;-54
2024/03/21 05:53:54;;;;;;;15.88;7.82;;;;;;;;;;5049256;28;20051;-54
2024/03/21 05:56:20;;;;;;;15.98;7.82;;;;;;;;;;5049612;28;20834;-52
2024/03/21 05:58:46;;;;;;;17.92;8.63;;;;;;;;;;5048694;28;20127;-51
2024/03/21 06:03:42;;;;;;;20.35;7.57;;;;;;;;;;5047202;28;20029;-49
2024/03/21 06:06:08;;;;;;;18.05;8.63;;;;;;;;;;5049042;28;20123;-50
2024/03/21 06:08:33;;;;;;;18.45;8.68;;;;;;;;;;5048895;28;20595;-51
2024/03/21 06:10:59;;;;;;;19.23;8.50;;;;;;;;;;5048374;28;20029;-52
2024/03/21 06:13:25;;;;;;;18.92;8.30;;;;;;;;;;5095323;28;20040;-50
2024/03/21 06:15:51;;;;;;;15.82;9.15;;;;;;;;;;5088708;28;20111;-51
2024/03/21 06:18:17;;;;;;;19.00;8.70;;;;;;;;;;5086485;28;20162;-51
2024/03/21 06:20:43;;;;;;;20.10;10.45;;;;;;;;;;5086831;28;20575;-53
2024/03/21 06:23:08;;;;;;;23.02;10.57;;;;;;;;;;5049045;28;20471;-54
2024/03/21 06:25:34;;;;;;;22.77;9.63;;;;;;;;;;5030420;28;20041;-52
2024/03/21 06:28:01;;;;;;;20.38;10.75;;;;;;;;;;5063846;28;20041;-53
2024/03/21 06:30:27;;;;;;;22.20;9.23;;;;;;;;;;5057356;28;20040;-51
2024/03/21 06:32:55;;;;;;;17.35;8.73;;;;;;;;;;5067168;28;20071;-52
2024/03/21 06:35:21;;;;;;;21.50;9.43;;;;;;;;;;5073006;28;20037;-50
2024/03/21 06:37:50;;;;;;;14.70;9.18;;;;;;;;;;5088675;28;20040;-52
2024/03/21 06:40:16;;;;;;;;;;;;;;;;;;5073984;28;20584;-49
2024/03/21 06:42:41;;;;;;;19.08;9.18;;;;;;;;;;5076071;28;19912;-54
2024/03/21 06:45:07;;;;;;;19.52;9.80;;;;;;;;;;5078256;28;20818;-53
2024/03/21 06:47:33;;;;;;;19.33;9.25;;;;;;;;;;5075591;28;20062;-54
2024/03/21 06:49:59;;;;;;;17.08;9.57;;;;;;;;;;5080805;28;20044;-53
2024/03/21 06:52:25;;;;;;;19.17;9.75;;;;;;;;;;5079862;28;20124;-53
2024/03/21 06:54:51;;;;;;;18.00;10.32;;;;;;;;;;5063877;28;20050;-49
2024/03/21 06:57:17;;;;;;;17.98;10.45;;;;;;;;;;5067159;28;20116;-50
2024/03/21 06:59:43;;;;;;;23.13;10.60;;;;;;;;;;5067699;28;20074;-52
2024/03/21 07:02:09;;;;;;;17.95;10.93;;;;;;;;;;5046637;28;20425;-56
2024/03/21 07:04:35;;;;;;;19.40;10.25;;;;;;;;;;5044891;28;20044;-54
2024/03/21 07:07:00;;;;;;;22.35;10.45;;;;;;;;;;5029825;28;20418;-55
2024/03/21 07:09:27;;;;;;;18.17;10.50;;;;;;;;;;5062789;28;20091;-54
2024/03/21 07:11:53;;;;;;;22.48;10.32;;;;;;;;;;5046253;28;20514;-51
2024/03/21 07:14:18;;;;;;;16.30;10.27;;;;;;;;;;5066312;28;20032;-53
2024/03/21 07:16:44;;;;;;;16.85;10.70;;;;;;;;;;5085980;28;20044;-51
2024/03/21 07:19:10;;;;;;;14.23;9.75;;;;;;;;;;5069217;28;20039;-52
2024/03/21 07:21:35;;;;;;;15.68;10.68;;;;;;;;;;5087402;28;20129;-49
2024/03/21 07:24:02;;;;;;;19.23;10.52;;;;;;;;;;5072286;28;20025;-53
2024/03/21 07:26:29;;;;;;;20.02;10.70;;;;;;;;;;5029494;28;20170;-55
2024/03/21 07:28:54;;;;;;;18.77;10.90;;;;;;;;;;5061958;28;20082;-50
2024/03/21 07:31:20;;;;;;;21.55;10.80;;;;;;;;;;5067428;28;20363;-53
2024/03/21 07:33:51;;;;;;;21.40;12.40;;;;;;;;;;5064489;28;20036;-53
2024/03/21 07:36:18;;;;;;;20.50;12.35;;;;;;;;;;5046779;28;20142;-52
2024/03/21 07:38:44;;;;;;;20.60;12.30;;;;;;;;;;5046954;28;20033;-55
2024/03/21 07:41:10;;;;;;;19.17;11.48;;;;;;;;;;5058470;28;20069;-53
2024/03/21 07:43:35;;;;;;;19.88;11.63;;;;;;;;;;5077526;28;20111;-52
2024/03/21 07:46:01;;;;;;;18.77;11.35;;;;;;;;;;5049883;28;20037;-50
2024/03/21 07:48:28;;;;;;;26.17;12.27;;;;;;;;;;5046265;28;20033;-54
2024/03/21 07:50:54;;;;;;;19.67;11.38;;;;;;;;;;5045838;28;20048;-55
2024/03/21 07:53:20;;;;;;;23.63;12.20;;;;;;;;;;5045163;28;20416;-51
2024/03/21 07:55:46;;;;;;;20.55;12.55;;;;;;;;;;5046686;28;20036;-52
2024/03/21 07:58:11;;;;;;;22.98;12.90;;;;;;;;;;5028683;28;20025;-53
2024/03/21 08:00:37;;;;;;;21.02;11.10;;;;;;;;;;5054030;28;20032;-51
2024/03/21 08:03:02;;;;;;;20.65;12.52;;;;;;;;;;5057978;28;20032;-51
2024/03/21 08:05:28;;;;;;;23.70;12.55;;;;;;;;;;5061082;28;20601;-52
2024/03/21 08:07:54;;;;;;;17.80;11.57;;;;;;;;;;5044854;28;20101;-51
2024/03/21 08:10:20;;;;;;;21.05;11.93;;;;;;;;;;5046231;28;20527;-51
2024/03/21 08:12:45;;;;;;;19.67;11.40;;;;;;;;;;5046285;28;20036;-54
2024/03/21 08:15:11;;;;;;;20.05;11.82;;;;;;;;;;5044465;28;20033;-53
2024/03/21 08:17:37;;;;;;;19.88;12.80;;;;;;;;;;5061225;28;20586;-51
2024/03/21 08:20:03;;;;;;;21.30;11.55;;;;;;;;;;5044984;28;20669;-52
2024/03/21 08:22:29;;;;;;;18.05;11.52;;;;;;;;;;5044542;28;20064;-54
2024/03/21 08:24:55;;;;;;;18.95;11.48;;;;;;;;;;5044936;28;20071;-51
2024/03/21 08:27:21;;;;;;;27.35;12.30;;;;;;;;;;5046047;28;20572;-48
2024/03/21 08:29:50;;;;;;;17.90;11.35;;;;;;;;;;5044626;28;20036;-51
2024/03/21 08:32:18;;;;;;;22.77;11.75;;;;;;;;;;5061243;28;20083;-51
2024/03/21 08:34:44;;;;;;;18.40;11.53;;;;;;;;;;5050902;28;20457;-52
2024/03/21 08:37:10;;;;;;;22.48;11.65;;;;;;;;;;5045363;28;20132;-55
2024/03/21 08:39:35;;;;;;;21.38;12.00;;;;;;;;;;5046353;28;20119;-55
2024/03/21 08:42:01;;;;;;;23.20;11.57;;;;;;;;;;5044759;28;20047;-51
2024/03/21 08:44:27;;;;;;;18.25;12.05;;;;;;;;;;5066061;28;20494;-53
2024/03/21 08:46:52;;;;;;;17.52;10.38;;;;;;;;;;5067062;28;20088;-51
2024/03/21 08:49:18;;;;;;;21.13;11.95;;;;;;;;;;5068002;28;20123;-50
2024/03/21 08:51:44;;;;;;;19.92;11.57;;;;;;;;;;5085761;28;20061;-51
2024/03/21 08:54:09;;;;;;;19.10;11.10;;;;;;;;;;5085513;28;20028;-54
2024/03/21 08:56:35;;;;;;;14.55;10.45;;;;;;;;;;5084615;28;20039;-52
2024/03/21 08:59:01;;;;;;;21.05;11.35;;;;;;;;;;5044305;28;20033;-57
2024/03/21 09:01:26;;;;;;;17.70;12.68;;;;;;;;;;5075902;28;20056;-50
2024/03/21 09:03:52;;;;;;;23.05;13.45;;;;;;;;;;5064519;28;20135;-49
2024/03/21 09:06:18;;;;;;;21.63;12.55;;;;;;;;;;5031318;28;20128;-50
2024/03/21 09:08:44;;;;;;;22.02;13.25;;;;;;;;;;5053569;28;20143;-51
2024/03/21 09:11:10;;;;;;;21.77;13.38;;;;;;;;;;5065793;28;20055;-52
2024/03/21 09:13:36;;;;;;;23.17;13.80;;;;;;;;;;5047117;28;20049;-49
2024/03/21 09:16:01;;;;;;;23.35;12.32;;;;;;;;;;5047307;28;20119;-51
2024/03/21 09:18:27;;;;;;;20.73;12.85;;;;;;;;;;5043815;28;20033;-52
2024/03/21 09:20:55;;;;;;;22.98;13.38;;;;;;;;;;5045209;28;20444;-48
2024/03/21 09:23:22;;;;;;;18.02;13.20;;;;;;;;;;5043968;28;20037;-54
2024/03/21 09:25:48;;;;;;;23.17;13.30;;;;;;;;;;5067672;28;20093;-53
2024/03/21 09:28:14;;;;;;;20.92;13.75;;;;;;;;;;5052481;28;20064;-54
2024/03/21 09:30:44;;;;;;;24.23;14.13;;;;;;;;;;5049848;28;20033;-55
2024/03/21 09:33:11;;;;;;;24.70;15.63;;;;;;;;;;5049108;28;20520;-50
2024/03/21 09:35:37;;;;;;;22.67;14.95;;;;;;;;;;5052734;28;20029;-55
2024/03/21 09:38:03;;;;;;;21.75;13.77;;;;;;;;;;5047636;28;20025;-49
2024/03/21 09:40:29;;;;;;;24.95;13.60;;;;;;;;;;5048752;28;20475;-54
2024/03/21 09:42:56;;;;;;;24.63;14.05;;;;;;;;;;5047695;28;20505;-58
2024/03/21 09:45:26;;;;;;;26.70;15.15;;;;;;;;;;5049095;28;20040;-54
2024/03/21 09:47:52;;;;;;;25.55;15.23;;;;;;;;;;5048830;28;20040;-55
2024/03/21 09:50:18;;;;;;;28.33;15.68;;;;;;;;;;5047530;28;20471;-53
2024/03/21 09:52:44;;;;;;;23.02;13.35;;;;;;;;;;5047491;28;20040;-54
2024/03/21 09:55:14;;;;;;;25.40;12.65;;;;;;;;;;5047780;28;20041;-55
2024/03/21 09:57:40;;;;;;;22.65;11.68;;;;;;;;;;5064327;28;20044;-55
2024/03/21 10:00:09;;;;;;;17.75;11.95;;;;;;;;;;5048932;28;20086;-52
2024/03/21 10:02:35;;;;;;;19.48;13.10;;;;;;;;;;5030556;28;20087;-55
2024/03/21 10:05:02;;;;;;;22.23;13.75;;;;;;;;;;5048728;28;20040;-54
2024/03/21 10:07:29;;;;;;;23.20;14.07;;;;;;;;;;5064187;28;20055;-52
2024/03/21 10:09:55;;;;;;;26.23;15.50;;;;;;;;;;5047474;28;20037;-53
2024/03/21 10:12:23;;;;;;;19.60;12.63;;;;;;;;;;5030570;28;20033;-55
2024/03/21 10:14:51;;;;;;;23.80;13.73;;;;;;;;;;5048570;28;20041;-56
2024/03/21 10:17:17;;;;;;;23.52;14.48;;;;;;;;;;5047353;28;20055;-52
2024/03/21 10:19:43;;;;;;;22.88;13.32;;;;;;;;;;5064207;28;20044;-55
2024/03/21 10:22:15;;;;;;;22.40;14.20;;;;;;;;;;5048679;28;20044;-55
2024/03/21 10:24:41;;;;;;;28.35;15.60;;;;;;;;;;5048351;28;20044;-52
2024/03/21 10:27:11;;;;;;;20.58;13.38;;;;;;;;;;5047928;28;20043;-49
2024/03/21 10:29:37;;;;;;;19.02;13.50;;;;;;;;;;5046748;28;20063;-57
2024/03/21 10:32:03;;;;;;;19.38;13.45;;;;;;;;;;5048258;28;20144;-53
2024/03/21 10:34:29;;;;;;;21.25;13.80;;;;;;;;;;5051480;28;20156;-53
2024/03/21 10:36:55;;;;;;;23.45;13.63;;;;;;;;;;5047249;28;20116;-49
2024/03/21 10:39:21;;;;;;;21.25;13.35;;;;;;;;;;5046794;28;20132;-52
2024/03/21 10:41:47;;;;;;;23.83;13.98;;;;;;;;;;5048237;28;20070;-52
2024/03/21 10:44:17;;;;;;;20.25;12.75;;;;;;;;;;5048389;28;20073;-51
2024/03/21 10:46:46;;;;;;;19.70;13.10;;;;;;;;;;5036322;28;20105;-53
2024/03/21 10:49:14;;;;;;;19.70;13.32;;;;;;;;;;5050078;28;20433;-52
2024/03/21 10:51:41;;;;;;;21.33;13.70;;;;;;;;;;5066248;28;20048;-52
2024/03/21 10:54:12;;;;;;;18.08;13.32;;;;;;;;;;5067635;28;20052;-50
2024/03/21 10:56:38;;;;;;;19.45;13.27;;;;;;;;;;5047519;28;20071;-53
2024/03/21 10:59:04;;;;;;;21.88;12.23;;;;;;;;;;5063011;28;20041;-55
2024/03/21 11:01:38;;;;;;;20.50;11.65;;;;;;;;;;5062630;28;20101;-55
2024/03/21 11:04:05;;;;;;;17.52;12.02;;;;;;;;;;5066833;28;20070;-54
2024/03/21 11:06:34;;;;;;;17.42;11.90;;;;;;;;;;5067380;28;20029;-53
2024/03/21 11:09:01;;;;;;;16.00;11.30;;;;;;;;;;5048853;28;20091;-53
2024/03/21 11:11:26;;;;;;;17.58;11.45;;;;;;;;;;5047623;28;20424;-54
2024/03/21 11:13:52;;;;;;;14.43;11.32;;;;;;;;;;5047538;28;20033;-52
2024/03/21 11:16:18;;;;;;;13.63;10.50;;;;;;;;;;5047618;28;20033;-53
2024/03/21 11:18:44;;;;;;;14.05;10.07;;;;;;;;;;5056300;28;20047;-51
2024/03/21 11:21:14;;;;;;;15.57;10.00;;;;;;;;;;5029904;28;20581;-53
2024/03/21 11:23:40;;;;;;;13.52;9.48;;;;;;;;;;5047491;28;20036;-52
2024/03/21 11:26:11;;;;;;;17.38;9.98;;;;;;;;;;5047609;28;20159;-53
2024/03/21 11:28:37;;;;;;;17.83;10.00;;;;;;;;;;5058458;28;20550;-54
2024/03/21 11:31:03;;;;;;;14.50;8.73;;;;;;;;;;5045564;28;20131;-53
2024/03/21 11:33:29;;;;;;;10.35;8.55;;;;;;;;;;5050486;28;20152;-53
2024/03/21 11:35:55;;;;;;;15.02;8.30;;;;;;;;;;5048126;28;20152;-55
2024/03/21 11:38:21;;;;;;;10.45;7.57;;;;;;;;;;5045538;28;20132;-55
2024/03/21 11:40:48;;;;;;;16.35;7.82;;;;;;;;;;5047143;28;20036;-54
2024/03/21 11:43:14;;;;;;;10.07;7.50;;;;;;;;;;5045931;28;20071;-57
2024/03/21 11:45:40;;;;;;;9.90;7.28;;;;;;;;;;5062578;28;20066;-55
2024/03/21 11:48:09;;;;;;;11.13;7.15;;;;;;;;;;5045379;28;20057;-51
2024/03/21 11:50:35;;;;;;;10.32;6.80;;;;;;;;;;5028827;28;20071;-51
2024/03/21 11:53:01;;;;;;;12.32;8.48;;;;;;;;;;5045098;28;20033;-53
2024/03/21 11:55:27;;;;;;;13.00;9.20;;;;;;;;;;5046392;28;20036;-51
2024/03/21 11:57:53;;;;;;;15.48;9.35;;;;;;;;;;5046702;28;20500;-56
2024/03/21 12:00:19;;;;;;;11.35;8.95;;;;;;;;;;5051911;28;20078;-52
2024/03/21 12:02:45;;;;;;;13.65;9.25;;;;;;;;;;5066400;28;20443;-51
2024/03/21 12:05:11;;;;;;;12.18;9.00;;;;;;;;;;5065319;28;20033;-53
2024/03/21 12:07:41;;;;;;;14.57;9.10;;;;;;;;;;5066630;28;20078;-54
2024/03/21 12:10:10;;;;;;;12.85;8.85;;;;;;;;;;5047506;28;20033;-52
2024/03/21 12:12:36;;;;;;;13.98;9.27;;;;;;;;;;5051562;28;20115;-57
2024/03/21 12:15:05;;;;;;;13.32;9.15;;;;;;;;;;5075941;28;20060;-53
2024/03/21 12:17:32;;;;;;;13.55;8.85;;;;;;;;;;5077015;28;20032;-54
2024/03/21 12:19:58;;;;;;;13.40;8.57;;;;;;;;;;5071934;28;20573;-52
2024/03/21 12:22:24;;;;;;;16.25;9.90;;;;;;;;;;5074972;28;20099;-52
2024/03/21 12:24:50;;;;;;;14.52;9.07;;;;;;;;;;5056559;28;20036;-51
2024/03/21 12:27:16;;;;;;;15.82;9.40;;;;;;;;;;5076552;28;20039;-55
2024/03/21 12:29:43;;;;;;;13.40;9.35;;;;;;;;;;5055875;28;20028;-52
2024/03/21 12:32:09;;;;;;;17.40;8.98;;;;;;;;;;5075598;28;20062;-50
2024/03/21 12:34:36;;;;;;;11.13;8.27;;;;;;;;;;5071140;28;20088;-53
2024/03/21 12:37:01;;;;;;;11.38;8.38;;;;;;;;;;5069631;28;20035;-53
2024/03/21 12:39:28;;;;;;;15.20;7.80;;;;;;;;;;5074986;28;20032;-55
2024/03/21 12:41:54;;;;;;;14.20;8.18;;;;;;;;;;5057341;28;20396;-53
2024/03/21 12:44:20;;;;;;;11.20;7.88;;;;;;;;;;5075438;28;20036;-50
2024/03/21 12:46:46;;;;;;;10.30;7.68;;;;;;;;;;5075326;28;20036;-54
2024/03/21 12:49:12;;;;;;;15.07;7.43;;;;;;;;;;5073916;28;20059;-51
2024/03/21 12:51:37;;;;;;;14.30;7.40;;;;;;;;;;5072535;28;20109;-53
2024/03/21 12:54:03;;;;;;;12.77;7.43;;;;;;;;;;5075589;28;20032;-51
2024/03/21 12:56:29;;;;;;;14.63;7.10;;;;;;;;;;5074095;28;20131;-53
2024/03/21 12:58:55;;;;;;;12.15;7.07;;;;;;;;;;5074486;28;20056;-56
2024/03/21 13:01:20;;;;;;;13.52;6.75;;;;;;;;;;5068445;28;20064;-55
2024/03/21 13:03:46;;;;;;;11.93;6.80;;;;;;;;;;5072009;28;20040;-52
2024/03/21 13:06:12;;;;;;;9.15;6.63;;;;;;;;;;5072732;28;20506;-54
2024/03/21 13:08:38;;;;;;;12.70;6.60;;;;;;;;;;5084594;28;20032;-52
2024/03/21 13:11:03;;;;;;;9.77;6.00;;;;;;;;;;5073281;28;20040;-53
2024/03/21 13:13:29;;;;;;;8.75;6.53;;;;;;;;;;5055205;28;20676;-58
2024/03/21 13:15:55;;;;;;;8.07;6.03;;;;;;;;;;5072384;28;20128;-54
2024/03/21 13:18:21;;;;;;;8.73;4.97;;;;;;;;;;5065512;28;20135;-54
2024/03/21 13:20:47;;;;;;;9.48;4.93;;;;;;;;;;5059746;28;20075;-51
2024/03/21 13:23:14;;;;;;;8.32;5.45;;;;;;;;;;5058330;28;20037;-54
2024/03/21 13:25:40;;;;;;;9.43;4.90;;;;;;;;;;5068063;28;20045;-53
2024/03/21 13:28:06;;;;;;;10.88;4.72;;;;;;;;;;5073502;28;20879;-51
2024/03/21 13:30:32;;;;;;;11.25;4.40;;;;;;;;;;5075737;28;20043;-54
2024/03/21 13:32:58;;;;;;;7.07;4.10;;;;;;;;;;5083354;28;20039;-51
2024/03/21 13:35:25;;;;;;;10.38;4.20;;;;;;;;;;5068324;28;20128;-48
2024/03/21 13:37:50;;;;;;;5.90;3.97;;;;;;;;;;5072036;28;20032;-52
2024/03/21 13:40:16;;;;;;;5.63;3.58;;;;;;;;;;5068751;28;20036;-49
2024/03/21 13:42:44;;;;;;;6.93;4.18;;;;;;;;;;5072637;28;20028;-48
2024/03/21 13:45:10;;;;;;;7.63;4.40;;;;;;;;;;5068828;28;20043;-49
2024/03/21 13:47:38;;;;;;;5.72;3.70;;;;;;;;;;5047472;28;20463;-56
2024/03/21 13:50:10;;;;;;;11.15;4.65;;;;;;;;;;5065288;28;20032;-54
2024/03/21 13:52:36;;;;;;;9.55;3.78;;;;;;;;;;5059466;28;20082;-49
2024/03/21 13:55:02;;;;;;;7.75;3.67;;;;;;;;;;5046964;28;20470;-54
2024/03/21 13:57:31;;;;;;;;;;;;;;;;;;5064173;28;20037;-51
2024/03/21 13:59:57;;;;;;;8.73;3.58;;;;;;;;;;5064984;28;20399;-53
2024/03/21 14:02:24;;;;;;;9.25;4.22;;;;;;;;;;5045072;28;20029;-55
2024/03/21 14:04:53;;;;;;;6.25;3.90;;;;;;;;;;5027381;28;20041;-55
2024/03/21 14:07:19;;;;;;;10.82;3.92;;;;;;;;;;5027339;28;20075;-52
2024/03/21 14:09:46;;;;;;;7.38;3.33;;;;;;;;;;5060558;28;20041;-49
2024/03/21 14:12:12;;;;;;;9.23;4.57;;;;;;;;;;5045996;28;20028;-51
2024/03/21 14:14:37;;;;;;;10.27;3.92;;;;;;;;;;5048628;28;20043;-51
2024/03/21 14:17:03;;;;;;;8.30;3.97;;;;;;;;;;5063623;28;20040;-50
2024/03/21 14:19:29;;;;;;;8.90;3.70;;;;;;;;;;5047121;28;20550;-53
2024/03/21 14:21:55;;;;;;;6.80;3.40;;;;;;;;;;5058045;28;20420;-52
2024/03/21 14:24:20;;;;;;;7.13;3.47;;;;;;;;;;5056522;28;20048;-53
2024/03/21 14:26:46;;;;;;;8.70;3.60;;;;;;;;;;5085457;28;20050;-52
2024/03/21 14:29:12;;;;;;;9.02;3.83;;;;;;;;;;5084734;28;20039;-54
2024/03/21 14:31:37;;;;;;;7.93;3.70;;;;;;;;;;5080396;28;20037;-54